sensor_id;sensor_type;location;lat;lon;timestamp;pressure;altitude;pressure_sealevel;temperature;humidity
20156;BME280;10238;49.556;10.956;2023-02-03T00:01:00;99269.69;;;4.91;100.00
20156;BME280;10238;49.556;10.956;2023-02-03T00:03:48;99254.31;;;4.98;100.00
20156;BME280;10238;49.556;10.956;2023-02-03T00:06:35;99265.72;;;4.98;100.00
20156;BME280;10238;49.556;10.956;2023-02-03T00:09:23;99267.06;;;4.91;100.00
20156;BME280;10238;49.556;10.956;2023-02-03T00:12:13;99257.25;;;4.93;100.00
20156;BME280;10238;49.556;10.956;2023-02-03T00:15:00;99260.66;;;4.95;100.00
20156;BME280;10238;49.556;10.956;2023-02-03T00:17:48;99250.09;;;4.95;100.00
20156;BME280;10238;49.556;10.956;2023-02-03T00:20:35;99271.09;;;4.97;100.00
20156;BME280;10238;49.556;10.956;2023-02-03T00:23:23;99263.38;;;4.94;100.00
20156;BME280;10238;49.556;10.956;2023-02-03T00:26:14;99271.19;;;4.95;100.00
20156;BME280;10238;49.556;10.956;2023-02-03T00:29:03;99271.19;;;4.95;100.00
20156;BME280;10238;49.556;10.956;2023-02-03T00:31:52;99271.91;;;4.97;100.00
20156;BME280;10238;49.556;10.956;2023-02-03T00:34:40;99264.00;;;4.97;100.00
20156;BME280;10238;49.556;10.956;2023-02-03T00:37:28;99261.59;;;4.94;100.00
20156;BME280;10238;49.556;10.956;2023-02-03T00:40:16;99264.75;;;4.99;100.00
20156;BME280;10238;49.556;10.956;2023-02-03T00:43:03;99264.00;;;4.97;100.00
20156;BME280;10238;49.556;10.956;2023-02-03T00:45:52;99270.03;;;4.99;100.00
20156;BME280;10238;49.556;10.956;2023-02-03T00:48:40;99258.53;;;5.00;100.00
20156;BME280;10238;49.556;10.956;2023-02-03T00:51:28;99253.94;;;5.04;100.00
20156;BME280;10238;49.556;10.956;2023-02-03T00:54:16;99252.34;;;5.01;100.00
20156;BME280;10238;49.556;10.956;2023-02-03T00:57:04;99257.81;;;4.98;100.00
20156;BME280;10238;49.556;10.956;2023-02-03T00:59:51;99256.88;;;4.99;100.00
20156;BME280;10238;49.556;10.956;2023-02-03T01:02:41;99258.53;;;5.00;100.00
20156;BME280;10238;49.556;10.956;2023-02-03T01:05:29;99253.28;;;5.00;100.00
20156;BME280;10238;49.556;10.956;2023-02-03T01:08:17;99258.34;;;5.03;100.00
20156;BME280;10238;49.556;10.956;2023-02-03T01:11:06;99270.03;;;4.99;100.00
20156;BME280;10238;49.556;10.956;2023-02-03T01:13:55;99262.13;;;4.99;100.00
20156;BME280;10238;49.556;10.956;2023-02-03T01:16:44;99277.75;;;5.02;100.00
20156;BME280;10238;49.556;10.956;2023-02-03T01:19:33;99273.34;;;5.03;100.00
20156;BME280;10238;49.556;10.956;2023-02-03T01:22:21;99258.34;;;5.03;100.00
20156;BME280;10238;49.556;10.956;2023-02-03T01:25:09;99268.16;;;5.01;100.00
20156;BME280;10238;49.556;10.956;2023-02-03T01:27:56;99253.28;;;5.00;100.00
20156;BME280;10238;49.556;10.956;2023-02-03T01:30:44;99260.06;;;5.04;100.00
20156;BME280;10238;49.556;10.956;2023-02-03T01:33:32;99265.97;;;5.08;100.00
20156;BME280;10238;49.556;10.956;2023-02-03T01:36:24;99259.09;;;5.05;100.00
20156;BME280;10238;49.556;10.956;2023-02-03T01:39:14;99252.25;;;5.03;100.00
20156;BME280;10238;49.556;10.956;2023-02-03T01:42:01;99252.06;;;5.06;100.00
20156;BME280;10238;49.556;10.956;2023-02-03T01:44:50;99246.78;;;5.06;100.00
20156;BME280;10238;49.556;10.956;2023-02-03T01:47:45;99250.25;;;5.06;100.00
20156;BME280;10238;49.556;10.956;2023-02-03T01:50:36;99252.06;;;5.06;100.00
20156;BME280;10238;49.556;10.956;2023-02-03T01:53:25;99238.97;;;5.04;100.00
20156;BME280;10238;49.556;10.956;2023-02-03T01:56:13;99225.50;;;5.09;100.00
20156;BME280;10238;49.556;10.956;2023-02-03T01:59:02;99222.97;;;5.07;100.00
20156;BME280;10238;49.556;10.956;2023-02-03T02:01:52;99210.53;;;5.09;100.00
20156;BME280;10238;49.556;10.956;2023-02-03T02:04:52;99209.81;;;5.07;100.00
20156;BME280;10238;49.556;10.956;2023-02-03T02:07:44;99194.91;;;5.06;100.00
20156;BME280;10238;49.556;10.956;2023-02-03T02:10:34;99189.66;;;5.06;100.00
20156;BME280;10238;49.556;10.956;2023-02-03T02:13:22;99198.50;;;5.05;100.00
20156;BME280;10238;49.556;10.956;2023-02-03T02:16:16;99208.75;;;5.10;100.00
20156;BME280;10238;49.556;10.956;2023-02-03T02:19:40;99194.72;;;5.09;100.00
20156;BME280;10238;49.556;10.956;2023-02-03T02:22:56;99187.78;;;5.08;100.00
20156;BME280;10238;49.556;10.956;2023-02-03T02:26:13;99196.63;;;5.07;100.00
20156;BME280;10238;49.556;10.956;2023-02-03T02:32:44;99185.34;;;5.05;100.00
20156;BME280;10238;49.556;10.956;2023-02-03T02:35:56;99200.19;;;5.06;100.00
20156;BME280;10238;49.556;10.956;2023-02-03T02:38:53;99191.34;;;5.07;100.00
20156;BME280;10238;49.556;10.956;2023-02-03T02:41:50;99195.13;;;5.03;100.00
20156;BME280;10238;49.556;10.956;2023-02-03T02:44:42;99209.91;;;5.06;100.00
20156;BME280;10238;49.556;10.956;2023-02-03T02:47:34;99214.31;;;5.05;100.00
20156;BME280;10238;49.556;10.956;2023-02-03T02:50:25;99207.38;;;5.04;100.00
20156;BME280;10238;49.556;10.956;2023-02-03T02:53:20;99208.84;;;5.08;100.00
20156;BME280;10238;49.556;10.956;2023-02-03T02:56:13;99208.00;;;5.08;100.00
20156;BME280;10238;49.556;10.956;2023-02-03T02:59:04;99208.84;;;5.08;100.00
20156;BME280;10238;49.556;10.956;2023-02-03T03:01:53;99204.44;;;5.09;100.00
20156;BME280;10238;49.556;10.956;2023-02-03T03:04:45;99205.34;;;5.08;100.00
20156;BME280;10238;49.556;10.956;2023-02-03T03:07:41;99212.44;;;5.07;100.00
20156;BME280;10238;49.556;10.956;2023-02-03T03:10:32;99214.97;;;5.09;100.00
20156;BME280;10238;49.556;10.956;2023-02-03T03:13:26;99220.88;;;5.12;100.00
20156;BME280;10238;49.556;10.956;2023-02-03T03:16:22;99224.47;;;5.11;100.00
20156;BME280;10238;49.556;10.956;2023-02-03T03:19:16;99223.22;;;5.17;100.00
20156;BME280;10238;49.556;10.956;2023-02-03T03:22:10;99212.88;;;5.14;100.00
20156;BME280;10238;49.556;10.956;2023-02-03T03:25:05;99211.09;;;5.14;100.00
20156;BME280;10238;49.556;10.956;2023-02-03T03:28:01;99215.59;;;5.12;100.00
20156;BME280;10238;49.556;10.956;2023-02-03T03:30:49;99217.75;;;5.20;100.00
20156;BME280;10238;49.556;10.956;2023-02-03T03:33:37;99236.19;;;5.20;100.00
20156;BME280;10238;49.556;10.956;2023-02-03T03:36:32;99231.88;;;5.19;100.00
20156;BME280;10238;49.556;10.956;2023-02-03T03:39:33;99236.09;;;5.21;100.00
20156;BME280;10238;49.556;10.956;2023-02-03T03:42:30;99247.38;;;5.23;100.00
20156;BME280;10238;49.556;10.956;2023-02-03T03:45:26;99253.38;;;5.25;100.00
20156;BME280;10238;49.556;10.956;2023-02-03T03:48:20;99250.84;;;5.24;100.00
20156;BME280;10238;49.556;10.956;2023-02-03T03:51:16;99243.03;;;5.22;100.00
20156;BME280;10238;49.556;10.956;2023-02-03T03:54:11;99230.72;;;5.23;100.00
20156;BME280;10238;49.556;10.956;2023-02-03T03:57:09;99231.47;;;5.25;100.00
20156;BME280;10238;49.556;10.956;2023-02-03T04:00:07;99227.22;;;5.22;100.00
20156;BME280;10238;49.556;10.956;2023-02-03T04:03:01;99221.97;;;5.22;100.00
20156;BME280;10238;49.556;10.956;2023-02-03T04:05:52;99202.59;;;5.23;100.00
20156;BME280;10238;49.556;10.956;2023-02-03T04:08:39;99207.84;;;5.23;100.00
20156;BME280;10238;49.556;10.956;2023-02-03T04:11:27;99206.13;;;5.22;100.00
20156;BME280;10238;49.556;10.956;2023-02-03T04:14:35;99201.53;;;5.26;100.00
20156;BME280;10238;49.556;10.956;2023-02-03T04:17:24;99202.38;;;5.26;100.00
20156;BME280;10238;49.556;10.956;2023-02-03T04:20:14;99195.41;;;5.25;100.00
20156;BME280;10238;49.556;10.956;2023-02-03T04:23:01;99184.97;;;5.24;100.00
20156;BME280;10238;49.556;10.956;2023-02-03T04:25:49;99191.84;;;5.26;100.00
20156;BME280;10238;49.556;10.956;2023-02-03T04:28:39;99177.06;;;5.24;100.00
20156;BME280;10238;49.556;10.956;2023-02-03T04:31:28;99180.44;;;5.26;100.00
20156;BME280;10238;49.556;10.956;2023-02-03T04:34:19;99171.88;;;5.22;100.00
20156;BME280;10238;49.556;10.956;2023-02-03T04:37:07;99168.22;;;5.25;100.00
20156;BME280;10238;49.556;10.956;2023-02-03T04:39:56;99160.41;;;5.23;100.00
20156;BME280;10238;49.556;10.956;2023-02-03T04:42:47;99163.97;;;5.22;100.00
20156;BME280;10238;49.556;10.956;2023-02-03T04:45:35;99163.97;;;5.22;100.00
20156;BME280;10238;49.556;10.956;2023-02-03T04:48:24;99156.06;;;5.22;100.00
20156;BME280;10238;49.556;10.956;2023-02-03T04:51:12;99159.56;;;5.23;100.00
20156;BME280;10238;49.556;10.956;2023-02-03T04:53:59;99158.50;;;5.25;100.00
20156;BME280;10238;49.556;10.956;2023-02-03T04:56:47;99170.00;;;5.24;100.00
20156;BME280;10238;49.556;10.956;2023-02-03T04:59:35;99171.06;;;5.22;100.00
20156;BME280;10238;49.556;10.956;2023-02-03T05:02:22;99182.22;;;5.25;100.00
20156;BME280;10238;49.556;10.956;2023-02-03T05:05:11;99193.72;;;5.24;100.00
20156;BME280;10238;49.556;10.956;2023-02-03T05:07:59;99176.13;;;5.25;100.00
20156;BME280;10238;49.556;10.956;2023-02-03T05:10:47;99162.09;;;5.24;100.00
20156;BME280;10238;49.556;10.956;2023-02-03T05:13:35;99172.75;;;5.23;100.00
20156;BME280;10238;49.556;10.956;2023-02-03T05:16:22;99170.56;;;5.29;100.00
20156;BME280;10238;49.556;10.956;2023-02-03T05:19:10;99183.06;;;5.26;100.00
20156;BME280;10238;49.556;10.956;2023-02-03T05:21:59;99192.75;;;5.25;100.00
20156;BME280;10238;49.556;10.956;2023-02-03T05:24:47;99202.19;;;5.29;100.00
20156;BME280;10238;49.556;10.956;2023-02-03T05:27:37;99209.34;;;5.27;100.00
20156;BME280;10238;49.556;10.956;2023-02-03T05:30:27;99207.56;;;5.28;100.00
20156;BME280;10238;49.556;10.956;2023-02-03T05:33:15;99199.66;;;5.28;100.00
20156;BME280;10238;49.556;10.956;2023-02-03T05:36:04;99193.53;;;5.27;100.00
20156;BME280;10238;49.556;10.956;2023-02-03T05:38:53;99211.88;;;5.29;100.00
20156;BME280;10238;49.556;10.956;2023-02-03T05:41:40;99209.25;;;5.29;100.00
20156;BME280;10238;49.556;10.956;2023-02-03T05:44:42;99201.03;;;5.33;100.00
20156;BME280;10238;49.556;10.956;2023-02-03T05:47:29;99194.03;;;5.32;100.00
20156;BME280;10238;49.556;10.956;2023-02-03T05:50:18;99202.19;;;5.29;100.00
20156;BME280;10238;49.556;10.956;2023-02-03T05:53:06;99194.28;;;5.29;100.00
20156;BME280;10238;49.556;10.956;2023-02-03T05:55:55;99191.63;;;5.29;100.00
20156;BME280;10238;49.556;10.956;2023-02-03T05:58:43;99187.09;;;5.31;100.00
20156;BME280;10238;49.556;10.956;2023-02-03T06:01:31;99183.72;;;5.29;100.00
20156;BME280;10238;49.556;10.956;2023-02-03T06:04:19;99178.34;;;5.31;100.00
20156;BME280;10238;49.556;10.956;2023-02-03T06:07:06;99153.03;;;5.28;100.00
20156;BME280;10238;49.556;10.956;2023-02-03T06:09:54;99143.44;;;5.27;100.00
20156;BME280;10238;49.556;10.956;2023-02-03T06:12:46;99136.38;;;5.28;100.00
20156;BME280;10238;49.556;10.956;2023-02-03T06:15:34;99123.94;;;5.30;100.00
20156;BME280;10238;49.556;10.956;2023-02-03T06:18:22;99127.41;;;5.30;100.00
20156;BME280;10238;49.556;10.956;2023-02-03T06:21:10;99130.06;;;5.30;100.00
20156;BME280;10238;49.556;10.956;2023-02-03T06:23:58;99130.78;;;5.32;100.00
20156;BME280;10238;49.556;10.956;2023-02-03T06:26:46;99129.31;;;5.28;100.00
20156;BME280;10238;49.556;10.956;2023-02-03T06:29:35;99128.38;;;5.29;100.00
20156;BME280;10238;49.556;10.956;2023-02-03T06:32:22;99129.50;;;5.25;100.00
20156;BME280;10238;49.556;10.956;2023-02-03T06:35:10;99131.13;;;5.28;100.00
20156;BME280;10238;49.556;10.956;2023-02-03T06:37:57;99112.78;;;5.26;100.00
20156;BME280;10238;49.556;10.956;2023-02-03T06:40:46;99132.16;;;5.25;100.00
20156;BME280;10238;49.556;10.956;2023-02-03T06:43:34;99123.31;;;5.26;100.00
20156;BME280;10238;49.556;10.956;2023-02-03T06:46:23;99127.22;;;5.33;100.00
20156;BME280;10238;49.556;10.956;2023-02-03T06:49:13;99149.97;;;5.34;100.00
20156;BME280;10238;49.556;10.956;2023-02-03T06:52:02;99145.88;;;5.30;100.00
20156;BME280;10238;49.556;10.956;2023-02-03T06:54:49;99137.22;;;5.28;100.00
20156;BME280;10238;49.556;10.956;2023-02-03T06:57:43;99135.34;;;5.30;100.00
20156;BME280;10238;49.556;10.956;2023-02-03T07:00:30;99132.69;;;5.30;100.00
20156;BME280;10238;49.556;10.956;2023-02-03T07:03:20;99133.56;;;5.31;100.00
20156;BME280;10238;49.556;10.956;2023-02-03T07:06:07;99141.47;;;5.31;100.00
20156;BME280;10238;49.556;10.956;2023-02-03T07:08:56;99113.84;;;5.36;100.00
20156;BME280;10238;49.556;10.956;2023-02-03T07:11:46;99129.66;;;5.36;100.00
20156;BME280;10238;49.556;10.956;2023-02-03T07:14:34;99143.03;;;5.33;100.00
20156;BME280;10238;49.556;10.956;2023-02-03T07:17:24;99149.03;;;5.35;100.00
20156;BME280;10238;49.556;10.956;2023-02-03T07:20:13;99143.97;;;5.32;100.00
20156;BME280;10238;49.556;10.956;2023-02-03T07:23:01;99130.06;;;5.30;100.00
20156;BME280;10238;49.556;10.956;2023-02-03T07:25:49;99133.41;;;5.32;100.00
20156;BME280;10238;49.556;10.956;2023-02-03T07:28:37;99139.34;;;5.36;100.00
20156;BME280;10238;49.556;10.956;2023-02-03T07:31:24;99175.19;;;5.38;100.00
20156;BME280;10238;49.556;10.956;2023-02-03T07:34:14;99157.69;;;5.37;100.00
20156;BME280;10238;49.556;10.956;2023-02-03T07:37:02;99147.78;;;5.41;100.00
20156;BME280;10238;49.556;10.956;2023-02-03T07:39:50;99165.50;;;5.39;100.00
20156;BME280;10238;49.556;10.956;2023-02-03T07:42:40;99160.88;;;5.42;100.00
20156;BME280;10238;49.556;10.956;2023-02-03T07:45:28;99156.53;;;5.41;100.00
20156;BME280;10238;49.556;10.956;2023-02-03T07:48:16;99169.72;;;5.41;100.00
20156;BME280;10238;49.556;10.956;2023-02-03T07:51:04;99186.19;;;5.45;100.00
20156;BME280;10238;49.556;10.956;2023-02-03T07:53:53;99176.38;;;5.47;100.00
20156;BME280;10238;49.556;10.956;2023-02-03T07:56:42;99168.56;;;5.45;100.00
20156;BME280;10238;49.556;10.956;2023-02-03T07:59:30;99173.09;;;5.43;100.00
20156;BME280;10238;49.556;10.956;2023-02-03T08:02:17;99157.69;;;5.50;100.00
20156;BME280;10238;49.556;10.956;2023-02-03T08:05:06;99162.75;;;5.53;100.00
20156;BME280;10238;49.556;10.956;2023-02-03T08:07:54;99154.53;;;5.57;100.00
20156;BME280;10238;49.556;10.956;2023-02-03T08:10:43;99154.44;;;5.59;100.00
20156;BME280;10238;49.556;10.956;2023-02-03T08:13:31;99161.53;;;5.58;100.00
20156;BME280;10238;49.556;10.956;2023-02-03T08:16:18;99165.09;;;5.57;100.00
20156;BME280;10238;49.556;10.956;2023-02-03T08:19:06;99169.53;;;5.57;100.00
20156;BME280;10238;49.556;10.956;2023-02-03T08:21:54;99164.88;;;5.60;100.00
20156;BME280;10238;49.556;10.956;2023-02-03T08:24:42;99163.97;;;5.61;100.00
20156;BME280;10238;49.556;10.956;2023-02-03T08:27:32;99173.34;;;5.65;100.00
20156;BME280;10238;49.556;10.956;2023-02-03T08:30:21;99176.09;;;5.64;100.00
20156;BME280;10238;49.556;10.956;2023-02-03T08:33:11;99162.78;;;5.65;100.00
20156;BME280;10238;49.556;10.956;2023-02-03T08:35:58;99159.94;;;5.68;100.00
20156;BME280;10238;49.556;10.956;2023-02-03T08:38:48;99173.03;;;5.70;100.00
20156;BME280;10238;49.556;10.956;2023-02-03T08:41:36;99171.00;;;5.73;100.00
20156;BME280;10238;49.556;10.956;2023-02-03T08:44:26;99174.81;;;5.69;100.00
20156;BME280;10238;49.556;10.956;2023-02-03T08:47:14;99163.31;;;5.70;100.00
20156;BME280;10238;49.556;10.956;2023-02-03T08:50:03;99152.66;;;5.72;100.00
20156;BME280;10238;49.556;10.956;2023-02-03T08:52:50;99163.41;;;5.69;100.00
20156;BME280;10238;49.556;10.956;2023-02-03T08:55:38;99164.25;;;5.69;100.00
20156;BME280;10238;49.556;10.956;2023-02-03T08:58:26;99167.66;;;5.71;100.00
20156;BME280;10238;49.556;10.956;2023-02-03T09:01:15;99160.66;;;5.70;100.00
20156;BME280;10238;49.556;10.956;2023-02-03T09:04:03;99150.13;;;5.70;100.00
20156;BME280;10238;49.556;10.956;2023-02-03T09:06:53;99140.53;;;5.69;100.00
20156;BME280;10238;49.556;10.956;2023-02-03T09:09:40;99146.66;;;5.70;100.00
20156;BME280;10238;49.556;10.956;2023-02-03T09:12:29;99140.53;;;5.69;100.00
20156;BME280;10238;49.556;10.956;2023-02-03T09:15:16;99141.28;;;5.71;100.00
20156;BME280;10238;49.556;10.956;2023-02-03T09:18:05;99141.28;;;5.71;100.00
20156;BME280;10238;49.556;10.956;2023-02-03T09:21:00;99140.31;;;5.72;100.00
20156;BME280;10238;49.556;10.956;2023-02-03T09:23:48;99142.97;;;5.72;100.00
20156;BME280;10238;49.556;10.956;2023-02-03T09:26:35;99136.50;;;5.76;100.00
20156;BME280;10238;49.556;10.956;2023-02-03T09:29:24;99124.06;;;5.78;100.00
20156;BME280;10238;49.556;10.956;2023-02-03T09:32:12;99121.75;;;5.86;100.00
20156;BME280;10238;49.556;10.956;2023-02-03T09:35:03;99111.56;;;5.82;100.00
20156;BME280;10238;49.556;10.956;2023-02-03T09:37:50;99106.19;;;5.83;100.00
20156;BME280;10238;49.556;10.956;2023-02-03T09:40:39;99105.94;;;5.86;100.00
20156;BME280;10238;49.556;10.956;2023-02-03T09:43:34;99098.66;;;5.90;100.00
20156;BME280;10238;49.556;10.956;2023-02-03T09:46:27;99095.91;;;5.91;100.00
20156;BME280;10238;49.556;10.956;2023-02-03T09:49:21;99087.69;;;5.96;100.00
20156;BME280;10238;49.556;10.956;2023-02-03T09:52:17;99077.50;;;6.02;100.00
20156;BME280;10238;49.556;10.956;2023-02-03T09:55:23;99092.41;;;6.03;100.00
20156;BME280;10238;49.556;10.956;2023-02-03T09:58:14;99080.91;;;6.04;100.00
20156;BME280;10238;49.556;10.956;2023-02-03T10:01:10;99073.63;;;6.08;100.00
20156;BME280;10238;49.556;10.956;2023-02-03T10:04:06;99076.03;;;6.11;100.00
20156;BME280;10238;49.556;10.956;2023-02-03T10:07:10;99077.50;;;6.15;100.00
20156;BME280;10238;49.556;10.956;2023-02-03T10:10:10;99079.81;;;6.19;100.00
20156;BME280;10238;49.556;10.956;2023-02-03T10:13:11;99067.22;;;6.23;100.00
20156;BME280;10238;49.556;10.956;2023-02-03T10:16:27;99074.91;;;6.26;100.00
20156;BME280;10238;49.556;10.956;2023-02-03T10:19:27;99068.16;;;6.34;100.00
20156;BME280;10238;49.556;10.956;2023-02-03T10:22:25;99058.19;;;6.38;100.00
20156;BME280;10238;49.556;10.956;2023-02-03T10:25:21;99051.13;;;6.38;100.00
20156;BME280;10238;49.556;10.956;2023-02-03T10:28:17;99043.00;;;6.41;100.00
20156;BME280;10238;49.556;10.956;2023-02-03T10:31:16;99040.13;;;6.44;100.00
20156;BME280;10238;49.556;10.956;2023-02-03T10:34:10;99035.44;;;6.48;100.00
20156;BME280;10238;49.556;10.956;2023-02-03T10:37:02;99030.06;;;6.49;100.00
20156;BME280;10238;49.556;10.956;2023-02-03T10:39:53;99021.69;;;6.55;100.00
20156;BME280;10238;49.556;10.956;2023-02-03T10:42:46;99009.91;;;6.59;100.00
20156;BME280;10238;49.556;10.956;2023-02-03T10:45:52;99000.84;;;6.63;100.00
20156;BME280;10238;49.556;10.956;2023-02-03T10:48:41;98990.88;;;6.67;100.00
20156;BME280;10238;49.556;10.956;2023-02-03T10:51:33;98993.63;;;6.65;100.00
20156;BME280;10238;49.556;10.956;2023-02-03T10:54:28;98970.34;;;6.71;100.00
20156;BME280;10238;49.556;10.956;2023-02-03T10:57:17;99010.22;;;6.79;100.00
20156;BME280;10238;49.556;10.956;2023-02-03T11:00:23;99004.50;;;6.85;100.00
20156;BME280;10238;49.556;10.956;2023-02-03T11:03:22;98981.22;;;6.90;100.00
20156;BME280;10238;49.556;10.956;2023-02-03T11:06:14;98984.56;;;6.92;100.00
20156;BME280;10238;49.556;10.956;2023-02-03T11:09:22;98991.56;;;6.93;100.00
20156;BME280;10238;49.556;10.956;2023-02-03T11:12:18;98973.53;;;6.98;100.00
20156;BME280;10238;49.556;10.956;2023-02-03T11:15:13;98968.00;;;7.01;100.00
20156;BME280;10238;49.556;10.956;2023-02-03T11:18:03;98971.38;;;7.03;100.00
20156;BME280;10238;49.556;10.956;2023-02-03T11:20:51;98973.81;;;7.06;100.00
20156;BME280;10238;49.556;10.956;2023-02-03T11:23:52;98965.63;;;7.09;100.00
20156;BME280;10238;49.556;10.956;2023-02-03T11:26:44;98978.84;;;7.09;100.00
20156;BME280;10238;49.556;10.956;2023-02-03T11:29:35;98968.16;;;7.10;100.00
20156;BME280;10238;49.556;10.956;2023-02-03T11:32:34;98982.94;;;7.13;100.00
20156;BME280;10238;49.556;10.956;2023-02-03T11:35:26;98967.06;;;7.13;100.00
20156;BME280;10238;49.556;10.956;2023-02-03T11:38:28;98973.44;;;7.10;100.00
20156;BME280;10238;49.556;10.956;2023-02-03T11:41:19;98974.28;;;7.11;100.00
20156;BME280;10238;49.556;10.956;2023-02-03T11:44:11;98960.94;;;7.12;100.00
20156;BME280;10238;49.556;10.956;2023-02-03T11:47:08;98979.31;;;7.14;100.00
20156;BME280;10238;49.556;10.956;2023-02-03T11:50:25;98972.38;;;7.13;100.00
20156;BME280;10238;49.556;10.956;2023-02-03T11:53:25;98948.09;;;7.19;100.00
20156;BME280;10238;49.556;10.956;2023-02-03T11:56:31;98966.00;;;7.15;100.00
20156;BME280;10238;49.556;10.956;2023-02-03T11:59:39;98937.03;;;7.14;100.00
20156;BME280;10238;49.556;10.956;2023-02-03T12:03:22;98950.97;;;7.16;100.00
20156;BME280;10238;49.556;10.956;2023-02-03T12:06:47;98934.03;;;7.18;100.00
20156;BME280;10238;49.556;10.956;2023-02-03T12:09:52;98950.75;;;7.19;100.00
20156;BME280;10238;49.556;10.956;2023-02-03T12:12:54;98934.88;;;7.19;100.00
20156;BME280;10238;49.556;10.956;2023-02-03T12:16:07;98929.72;;;7.17;100.00
20156;BME280;10238;49.556;10.956;2023-02-03T12:19:10;98934.25;;;7.15;100.00
20156;BME280;10238;49.556;10.956;2023-02-03T12:22:08;98945.06;;;7.12;100.00
20156;BME280;10238;49.556;10.956;2023-02-03T12:25:27;98931.03;;;7.12;100.00
20156;BME280;10238;49.556;10.956;2023-02-03T12:28:42;98931.75;;;7.14;100.00
20156;BME280;10238;49.556;10.956;2023-02-03T12:31:37;98927.66;;;7.10;100.00
20156;BME280;10238;49.556;10.956;2023-02-03T12:34:32;98919.72;;;7.10;100.00
20156;BME280;10238;49.556;10.956;2023-02-03T12:37:27;98935.59;;;7.10;100.00
20156;BME280;10238;49.556;10.956;2023-02-03T12:40:27;98914.56;;;7.08;100.00
20156;BME280;10238;49.556;10.956;2023-02-03T12:43:24;98904.84;;;7.09;100.00
20156;BME280;10238;49.556;10.956;2023-02-03T12:46:19;98900.66;;;7.06;100.00
20156;BME280;10238;49.556;10.956;2023-02-03T12:49:29;98900.75;;;7.05;100.00
20156;BME280;10238;49.556;10.956;2023-02-03T12:52:26;98880.09;;;6.99;100.00
20156;BME280;10238;49.556;10.956;2023-02-03T12:55:27;98907.47;;;6.98;100.00
20156;BME280;10238;49.556;10.956;2023-02-03T12:58:23;98892.81;;;6.94;100.00
20156;BME280;10238;49.556;10.956;2023-02-03T13:01:18;98900.63;;;6.95;100.00
20156;BME280;10238;49.556;10.956;2023-02-03T13:04:12;98922.09;;;6.91;100.00
20156;BME280;10238;49.556;10.956;2023-02-03T13:07:07;98908.66;;;6.94;100.00
20156;BME280;10238;49.556;10.956;2023-02-03T13:10:05;98896.66;;;6.90;100.00
20156;BME280;10238;49.556;10.956;2023-02-03T13:12:59;98888.00;;;6.88;100.00
20156;BME280;10238;49.556;10.956;2023-02-03T13:15:52;98894.97;;;6.89;100.00
20156;BME280;10238;49.556;10.956;2023-02-03T13:18:44;98891.72;;;6.85;100.00
20156;BME280;10238;49.556;10.956;2023-02-03T13:21:34;98904.09;;;6.85;100.00
20156;BME280;10238;49.556;10.956;2023-02-03T13:24:24;98884.88;;;6.83;100.00
20156;BME280;10238;49.556;10.956;2023-02-03T13:27:40;98892.69;;;6.84;100.00
20156;BME280;10238;49.556;10.956;2023-02-03T13:31:10;98870.09;;;6.80;100.00
20156;BME280;10238;49.556;10.956;2023-02-03T13:40:56;98853.28;;;6.70;100.00
20156;BME280;10238;49.556;10.956;2023-02-03T13:43:50;98825.41;;;6.66;100.00
20156;BME280;10238;49.556;10.956;2023-02-03T13:46:39;98818.81;;;6.60;100.00
20156;BME280;10238;49.556;10.956;2023-02-03T13:49:30;98817.00;;;6.61;100.00
20156;BME280;10238;49.556;10.956;2023-02-03T13:52:26;98819.75;;;6.59;100.00
20156;BME280;10238;49.556;10.956;2023-02-03T13:55:32;98823.38;;;6.58;100.00
20156;BME280;10238;49.556;10.956;2023-02-03T13:58:25;98830.56;;;6.56;100.00
20156;BME280;10238;49.556;10.956;2023-02-03T14:01:31;98832.50;;;6.54;100.00
20156;BME280;10238;49.556;10.956;2023-02-03T14:04:52;98833.47;;;6.53;100.00
20156;BME280;10238;49.556;10.956;2023-02-03T14:07:40;98835.38;;;6.51;100.00
20156;BME280;10238;49.556;10.956;2023-02-03T14:10:28;98827.44;;;6.51;100.00
20156;BME280;10238;49.556;10.956;2023-02-03T14:13:20;98834.41;;;6.52;100.00
20156;BME280;10238;49.556;10.956;2023-02-03T14:16:23;98826.47;;;6.52;100.00
20156;BME280;10238;49.556;10.956;2023-02-03T14:19:55;98815.22;;;6.50;100.00
20156;BME280;10238;49.556;10.956;2023-02-03T14:22:43;98832.72;;;6.51;100.00
20156;BME280;10238;49.556;10.956;2023-02-03T14:25:33;98817.84;;;6.50;100.00
20156;BME280;10238;49.556;10.956;2023-02-03T14:28:37;98820.72;;;6.47;100.00
20156;BME280;10238;49.556;10.956;2023-02-03T14:31:27;98818.78;;;6.49;100.00
20156;BME280;10238;49.556;10.956;2023-02-03T14:34:16;98799.38;;;6.50;100.00
20156;BME280;10238;49.556;10.956;2023-02-03T14:37:25;98810.75;;;6.51;100.00
20156;BME280;10238;49.556;10.956;2023-02-03T14:40:27;98818.78;;;6.49;100.00
20156;BME280;10238;49.556;10.956;2023-02-03T14:43:32;98811.94;;;6.47;100.00
20156;BME280;10238;49.556;10.956;2023-02-03T14:46:52;98828.66;;;6.47;100.00
20156;BME280;10238;49.556;10.956;2023-02-03T14:50:04;98841.00;;;6.47;100.00
20156;BME280;10238;49.556;10.956;2023-02-03T14:53:24;98844.50;;;6.47;100.00
20156;BME280;10238;49.556;10.956;2023-02-03T14:56:29;98855.16;;;6.46;100.00
20156;BME280;10238;49.556;10.956;2023-02-03T14:59:44;98845.66;;;6.43;100.00
20156;BME280;10238;49.556;10.956;2023-02-03T15:02:34;98845.66;;;6.43;100.00
20156;BME280;10238;49.556;10.956;2023-02-03T15:05:38;98853.69;;;6.42;100.00
20156;BME280;10238;49.556;10.956;2023-02-03T15:08:37;98851.16;;;6.40;100.00
20156;BME280;10238;49.556;10.956;2023-02-03T15:11:31;98852.03;;;6.41;100.00
20156;BME280;10238;49.556;10.956;2023-02-03T15:14:23;98853.81;;;6.40;100.00
20156;BME280;10238;49.556;10.956;2023-02-03T15:17:21;98857.41;;;6.39;100.00